sensor_id;sensor_type;location;lat;lon;timestamp;pressure;altitude;pressure_sealevel;temperature;humidity
58072;BME280;60383;46.626;18.866;2023-11-21T00:01:37;100024.81;;;6.65;97.32
58072;BME280;60383;46.626;18.866;2023-11-21T00:04:31;100017.91;;;6.51;96.73
58072;BME280;60383;46.626;18.866;2023-11-21T00:06:57;100020.16;;;6.26;98.14
58072;BME280;60383;46.626;18.866;2023-11-21T00:09:48;100022.19;;;6.44;98.04
58072;BME280;60383;46.626;18.866;2023-11-21T00:12:39;100020.34;;;6.34;98.52
58072;BME280;60383;46.626;18.866;2023-11-21T00:18:39;100025.47;;;6.28;97.19
58072;BME280;60383;46.626;18.866;2023-11-21T00:24:02;100027.94;;;6.50;95.09
58072;BME280;60383;46.626;18.866;2023-11-21T00:27:13;100034.56;;;6.58;94.47
58072;BME280;60383;46.626;18.866;2023-11-21T00:29:52;100038.84;;;6.50;95.28
58072;BME280;60383;46.626;18.866;2023-11-21T00:32:46;100041.97;;;6.55;95.30
58072;BME280;60383;46.626;18.866;2023-11-21T00:35:38;100044.38;;;6.39;97.15
58072;BME280;60383;46.626;18.866;2023-11-21T00:41:47;100040.63;;;6.20;98.15
58072;BME280;60383;46.626;18.866;2023-11-21T00:44:18;100038.06;;;6.29;98.13
58072;BME280;60383;46.626;18.866;2023-11-21T00:46:54;100035.34;;;6.29;98.79
58072;BME280;60383;46.626;18.866;2023-11-21T00:49:48;100030.88;;;6.18;99.40
58072;BME280;60383;46.626;18.866;2023-11-21T00:52:42;100027.91;;;6.31;98.81
58072;BME280;60383;46.626;18.866;2023-11-21T00:55:14;100024.88;;;6.24;99.87
58072;BME280;60383;46.626;18.866;2023-11-21T00:57:55;100019.00;;;6.19;100.00
58072;BME280;60383;46.626;18.866;2023-11-21T01:00:25;100017.03;;;6.21;100.00
58072;BME280;60383;46.626;18.866;2023-11-21T01:09:23;100006.19;;;6.41;100.00
58072;BME280;60383;46.626;18.866;2023-11-21T01:12:11;99997.44;;;6.47;100.00
58072;BME280;60383;46.626;18.866;2023-11-21T01:15:07;99989.97;;;6.29;100.00
58072;BME280;60383;46.626;18.866;2023-11-21T01:17:39;99985.25;;;6.31;100.00
58072;BME280;60383;46.626;18.866;2023-11-21T01:23:37;99967.78;;;6.44;100.00
58072;BME280;60383;46.626;18.866;2023-11-21T01:26:31;99967.94;;;6.32;100.00
58072;BME280;60383;46.626;18.866;2023-11-21T01:32:30;99964.78;;;6.17;100.00
58072;BME280;60383;46.626;18.866;2023-11-21T01:35:17;99949.44;;;6.16;100.00
58072;BME280;60383;46.626;18.866;2023-11-21T01:37:55;99952.28;;;6.15;100.00
58072;BME280;60383;46.626;18.866;2023-11-21T01:43:42;99952.19;;;6.26;100.00
58072;BME280;60383;46.626;18.866;2023-11-21T01:46:11;99947.56;;;6.17;100.00
58072;BME280;60383;46.626;18.866;2023-11-21T01:48:47;99946.41;;;6.00;100.00
58072;BME280;60383;46.626;18.866;2023-11-21T01:54:29;99947.19;;;6.41;100.00
58072;BME280;60383;46.626;18.866;2023-11-21T01:57:29;99963.50;;;6.80;97.84
58072;BME280;60383;46.626;18.866;2023-11-21T02:03:13;99969.81;;;6.61;98.63
58072;BME280;60383;46.626;18.866;2023-11-21T02:05:42;99961.94;;;6.68;98.47
58072;BME280;60383;46.626;18.866;2023-11-21T02:08:16;99956.34;;;6.50;99.10
58072;BME280;60383;46.626;18.866;2023-11-21T02:14:40;99946.19;;;6.32;99.06
58072;BME280;60383;46.626;18.866;2023-11-21T02:17:18;99932.72;;;6.31;99.90
58072;BME280;60383;46.626;18.866;2023-11-21T02:20:27;99929.13;;;6.30;100.00
58072;BME280;60383;46.626;18.866;2023-11-21T02:26:30;99921.31;;;5.96;100.00
58072;BME280;60383;46.626;18.866;2023-11-21T02:29:13;99929.84;;;6.42;100.00
58072;BME280;60383;46.626;18.866;2023-11-21T02:32:11;99938.00;;;6.62;99.27
58072;BME280;60383;46.626;18.866;2023-11-21T02:34:43;99933.44;;;6.72;98.56
58072;BME280;60383;46.626;18.866;2023-11-21T02:37:23;99948.31;;;6.68;98.86
58072;BME280;60383;46.626;18.866;2023-11-21T02:39:51;99935.16;;;6.53;99.06
58072;BME280;60383;46.626;18.866;2023-11-21T02:42:29;99940.59;;;6.44;100.00
58072;BME280;60383;46.626;18.866;2023-11-21T02:48:31;99954.59;;;6.29;100.00
58072;BME280;60383;46.626;18.866;2023-11-21T02:51:15;99942.72;;;6.30;100.00
58072;BME280;60383;46.626;18.866;2023-11-21T02:54:07;99941.72;;;6.21;100.00
58072;BME280;60383;46.626;18.866;2023-11-21T03:03:21;99932.56;;;6.22;100.00
58072;BME280;60383;46.626;18.866;2023-11-21T03:09:03;99922.53;;;6.23;100.00
58072;BME280;60383;46.626;18.866;2023-11-21T03:11:37;99927.97;;;6.33;100.00
58072;BME280;60383;46.626;18.866;2023-11-21T03:14:09;99932.72;;;6.41;100.00
58072;BME280;60383;46.626;18.866;2023-11-21T03:16:57;99931.16;;;6.48;100.00
58072;BME280;60383;46.626;18.866;2023-11-21T03:22:51;99922.13;;;6.47;100.00
58072;BME280;60383;46.626;18.866;2023-11-21T03:25:22;99913.81;;;6.49;100.00
58072;BME280;60383;46.626;18.866;2023-11-21T03:27:51;99916.09;;;6.53;100.00
58072;BME280;60383;46.626;18.866;2023-11-21T03:30:46;99913.38;;;6.63;100.00
58072;BME280;60383;46.626;18.866;2023-11-21T03:33:41;99913.25;;;6.45;100.00
58072;BME280;60383;46.626;18.866;2023-11-21T03:39:20;99923.38;;;6.82;100.00
58072;BME280;60383;46.626;18.866;2023-11-21T03:41:57;99924.09;;;6.94;100.00
58072;BME280;60383;46.626;18.866;2023-11-21T03:44:34;99927.97;;;6.82;100.00
58072;BME280;60383;46.626;18.866;2023-11-21T03:53:43;99918.94;;;6.71;100.00
58072;BME280;60383;46.626;18.866;2023-11-21T03:56:32;99918.38;;;6.68;100.00
58072;BME280;60383;46.626;18.866;2023-11-21T03:59:35;99920.84;;;6.61;100.00
58072;BME280;60383;46.626;18.866;2023-11-21T04:02:33;99917.53;;;6.67;100.00
58072;BME280;60383;46.626;18.866;2023-11-21T04:05:04;99906.78;;;6.66;100.00
58072;BME280;60383;46.626;18.866;2023-11-21T04:07:49;99917.66;;;6.66;100.00
58072;BME280;60383;46.626;18.866;2023-11-21T04:10:27;99919.53;;;6.55;100.00
58072;BME280;60383;46.626;18.866;2023-11-21T04:13:05;99924.38;;;6.81;100.00
58072;BME280;60383;46.626;18.866;2023-11-21T04:15:56;99935.13;;;6.93;100.00
58072;BME280;60383;46.626;18.866;2023-11-21T04:18:31;99941.97;;;7.07;100.00
58072;BME280;60383;46.626;18.866;2023-11-21T04:21:07;99943.91;;;7.34;99.47
58072;BME280;60383;46.626;18.866;2023-11-21T04:24:02;99947.22;;;7.18;98.56
58072;BME280;60383;46.626;18.866;2023-11-21T04:27:12;99956.44;;;7.17;98.65
58072;BME280;60383;46.626;18.866;2023-11-21T04:30:11;99960.19;;;6.96;99.18
58072;BME280;60383;46.626;18.866;2023-11-21T04:33:09;99968.78;;;7.01;100.00
58072;BME280;60383;46.626;18.866;2023-11-21T04:35:50;99971.19;;;7.14;99.46
58072;BME280;60383;46.626;18.866;2023-11-21T04:38:16;99981.06;;;7.15;99.29
58072;BME280;60383;46.626;18.866;2023-11-21T04:40:45;99973.22;;;7.12;100.00
58072;BME280;60383;46.626;18.866;2023-11-21T04:43:19;99976.97;;;7.01;100.00
58072;BME280;60383;46.626;18.866;2023-11-21T04:46:14;99970.75;;;7.09;100.00
58072;BME280;60383;46.626;18.866;2023-11-21T04:52:32;99972.38;;;6.82;100.00
58072;BME280;60383;46.626;18.866;2023-11-21T04:55:13;99980.94;;;6.97;100.00
58072;BME280;60383;46.626;18.866;2023-11-21T04:58:28;99981.13;;;6.86;100.00
58072;BME280;60383;46.626;18.866;2023-11-21T05:03:53;99986.84;;;7.02;100.00
58072;BME280;60383;46.626;18.866;2023-11-21T05:06:28;99992.97;;;7.04;100.00
58072;BME280;60383;46.626;18.866;2023-11-21T05:12:26;99999.53;;;7.22;100.00
58072;BME280;60383;46.626;18.866;2023-11-21T05:15:39;100000.44;;;7.22;100.00
58072;BME280;60383;46.626;18.866;2023-11-21T05:18:27;99992.09;;;7.24;100.00
58072;BME280;60383;46.626;18.866;2023-11-21T05:21:01;99995.22;;;7.29;100.00
58072;BME280;60383;46.626;18.866;2023-11-21T05:23:40;100003.00;;;7.24;100.00
58072;BME280;60383;46.626;18.866;2023-11-21T05:26:32;100008.16;;;7.27;100.00
58072;BME280;60383;46.626;18.866;2023-11-21T05:29:06;100004.94;;;7.51;100.00
58072;BME280;60383;46.626;18.866;2023-11-21T05:31:39;100008.66;;;7.60;100.00
58072;BME280;60383;46.626;18.866;2023-11-21T05:37:53;100007.38;;;7.54;100.00
58072;BME280;60383;46.626;18.866;2023-11-21T05:43:52;100017.66;;;7.60;100.00
58072;BME280;60383;46.626;18.866;2023-11-21T05:49:42;100023.53;;;7.75;100.00
58072;BME280;60383;46.626;18.866;2023-11-21T05:52:55;100035.22;;;7.48;100.00
58072;BME280;60383;46.626;18.866;2023-11-21T05:55:48;100036.81;;;7.41;100.00
58072;BME280;60383;46.626;18.866;2023-11-21T06:01:32;100041.53;;;7.39;100.00
58072;BME280;60383;46.626;18.866;2023-11-21T06:04:06;100043.34;;;7.58;100.00
58072;BME280;60383;46.626;18.866;2023-11-21T06:10:08;100042.94;;;7.53;100.00
58072;BME280;60383;46.626;18.866;2023-11-21T06:12:47;100048.41;;;7.53;100.00
58072;BME280;60383;46.626;18.866;2023-11-21T06:15:25;100041.88;;;7.73;100.00
58072;BME280;60383;46.626;18.866;2023-11-21T06:18:00;100046.91;;;7.78;100.00
58072;BME280;60383;46.626;18.866;2023-11-21T06:20:39;100044.84;;;7.80;100.00
58072;BME280;60383;46.626;18.866;2023-11-21T06:23:17;100049.31;;;7.81;100.00
58072;BME280;60383;46.626;18.866;2023-11-21T06:25:51;100052.31;;;7.88;100.00
58072;BME280;60383;46.626;18.866;2023-11-21T06:28:51;100043.50;;;8.04;100.00
58072;BME280;60383;46.626;18.866;2023-11-21T06:31:27;100046.50;;;8.00;100.00
58072;BME280;60383;46.626;18.866;2023-11-21T06:41:10;100047.16;;;7.84;100.00
58072;BME280;60383;46.626;18.866;2023-11-21T06:43:44;100044.47;;;7.75;100.00
58072;BME280;60383;46.626;18.866;2023-11-21T06:46:33;100042.16;;;7.70;100.00
58072;BME280;60383;46.626;18.866;2023-11-21T06:49:01;100042.75;;;7.64;100.00
58072;BME280;60383;46.626;18.866;2023-11-21T06:51:47;100039.59;;;7.68;100.00
58072;BME280;60383;46.626;18.866;2023-11-21T06:54:22;100037.88;;;7.67;100.00
58072;BME280;60383;46.626;18.866;2023-11-21T06:57:28;100041.34;;;7.60;100.00
58072;BME280;60383;46.626;18.866;2023-11-21T07:00:03;100038.03;;;7.66;100.00
58072;BME280;60383;46.626;18.866;2023-11-21T07:03:07;100033.00;;;7.71;100.00
58072;BME280;60383;46.626;18.866;2023-11-21T07:06:19;100050.50;;;7.68;100.00
58072;BME280;60383;46.626;18.866;2023-11-21T07:09:06;100057.16;;;7.94;100.00
58072;BME280;60383;46.626;18.866;2023-11-21T07:11:58;100067.34;;;7.92;100.00
58072;BME280;60383;46.626;18.866;2023-11-21T07:14:29;100061.19;;;7.90;100.00
58072;BME280;60383;46.626;18.866;2023-11-21T07:16:58;100063.22;;;7.88;100.00
58072;BME280;60383;46.626;18.866;2023-11-21T07:20:02;100053.78;;;7.72;100.00
58072;BME280;60383;46.626;18.866;2023-11-21T07:22:43;100060.13;;;7.63;100.00
58072;BME280;60383;46.626;18.866;2023-11-21T07:28:11;100055.69;;;7.52;100.00
58072;BME280;60383;46.626;18.866;2023-11-21T07:31:26;100050.47;;;7.78;100.00
58072;BME280;60383;46.626;18.866;2023-11-21T07:34:06;100054.09;;;7.59;100.00
58072;BME280;60383;46.626;18.866;2023-11-21T07:36:52;100067.09;;;7.85;100.00
58072;BME280;60383;46.626;18.866;2023-11-21T07:39:43;100067.28;;;8.11;100.00
58072;BME280;60383;46.626;18.866;2023-11-21T07:42:12;100066.03;;;8.06;100.00
58072;BME280;60383;46.626;18.866;2023-11-21T07:45:10;100091.25;;;8.08;100.00
58072;BME280;60383;46.626;18.866;2023-11-21T07:50:37;100091.38;;;8.16;100.00
58072;BME280;60383;46.626;18.866;2023-11-21T07:53:17;100098.19;;;8.02;100.00
58072;BME280;60383;46.626;18.866;2023-11-21T07:56:12;100097.72;;;8.17;100.00
58072;BME280;60383;46.626;18.866;2023-11-21T07:59:04;100110.66;;;8.05;100.00
58072;BME280;60383;46.626;18.866;2023-11-21T08:01:42;100112.69;;;8.03;100.00
58072;BME280;60383;46.626;18.866;2023-11-21T08:04:53;100113.84;;;8.00;100.00
58072;BME280;60383;46.626;18.866;2023-11-21T08:07:57;100105.69;;;8.28;100.00
58072;BME280;60383;46.626;18.866;2023-11-21T08:10:52;100105.81;;;8.36;100.00
58072;BME280;60383;46.626;18.866;2023-11-21T08:13:55;100102.19;;;8.36;100.00
58072;BME280;60383;46.626;18.866;2023-11-21T08:16:22;100101.81;;;8.30;100.00
58072;BME280;60383;46.626;18.866;2023-11-21T08:19:33;100108.53;;;8.36;100.00
58072;BME280;60383;46.626;18.866;2023-11-21T08:22:26;100100.22;;;8.28;100.00
58072;BME280;60383;46.626;18.866;2023-11-21T08:25:04;100100.94;;;8.30;100.00
58072;BME280;60383;46.626;18.866;2023-11-21T08:27:51;100097.84;;;8.43;100.00
58072;BME280;60383;46.626;18.866;2023-11-21T08:30:33;100099.47;;;8.36;100.00
58072;BME280;60383;46.626;18.866;2023-11-21T08:36:47;100104.31;;;8.42;100.00
58072;BME280;60383;46.626;18.866;2023-11-21T08:39:25;100098.72;;;8.53;100.00
58072;BME280;60383;46.626;18.866;2023-11-21T08:42:02;100099.81;;;8.60;100.00
58072;BME280;60383;46.626;18.866;2023-11-21T08:45:01;100104.56;;;8.58;100.00
58072;BME280;60383;46.626;18.866;2023-11-21T08:47:41;100102.59;;;8.51;100.00
58072;BME280;60383;46.626;18.866;2023-11-21T08:53:25;100105.47;;;8.39;100.00
58072;BME280;60383;46.626;18.866;2023-11-21T08:56:27;100095.50;;;8.30;100.00
58072;BME280;60383;46.626;18.866;2023-11-21T09:02:33;100090.78;;;8.22;100.00
58072;BME280;60383;46.626;18.866;2023-11-21T09:05:20;100097.22;;;8.21;100.00
58072;BME280;60383;46.626;18.866;2023-11-21T09:07:46;100080.31;;;8.18;100.00
58072;BME280;60383;46.626;18.866;2023-11-21T09:10:14;100086.09;;;8.14;100.00
58072;BME280;60383;46.626;18.866;2023-11-21T09:12:40;100085.88;;;8.26;100.00
58072;BME280;60383;46.626;18.866;2023-11-21T09:15:44;100076.41;;;8.30;100.00
58072;BME280;60383;46.626;18.866;2023-11-21T09:18:39;100079.91;;;8.40;100.00
58072;BME280;60383;46.626;18.866;2023-11-21T09:24:25;100077.59;;;8.45;100.00
58072;BME280;60383;46.626;18.866;2023-11-21T09:27:44;100071.44;;;8.43;100.00
58072;BME280;60383;46.626;18.866;2023-11-21T09:30:25;100057.63;;;8.45;100.00
58072;BME280;60383;46.626;18.866;2023-11-21T09:32:53;100044.75;;;8.37;100.00
58072;BME280;60383;46.626;18.866;2023-11-21T09:35:46;100036.31;;;8.30;100.00
58072;BME280;60383;46.626;18.866;2023-11-21T09:45:34;100019.94;;;8.30;100.00
58072;BME280;60383;46.626;18.866;2023-11-21T09:48:24;100013.16;;;8.07;100.00
58072;BME280;60383;46.626;18.866;2023-11-21T09:51:23;100008.25;;;8.20;100.00
58072;BME280;60383;46.626;18.866;2023-11-21T09:57:18;100003.75;;;8.29;100.00
58072;BME280;60383;46.626;18.866;2023-11-21T10:03:04;100002.25;;;8.17;100.00
58072;BME280;60383;46.626;18.866;2023-11-21T10:05:42;100005.53;;;8.20;100.00
58072;BME280;60383;46.626;18.866;2023-11-21T10:08:29;100012.31;;;8.34;100.00
58072;BME280;60383;46.626;18.866;2023-11-21T10:14:37;100000.94;;;8.39;100.00
58072;BME280;60383;46.626;18.866;2023-11-21T10:20:33;99986.56;;;8.19;100.00
58072;BME280;60383;46.626;18.866;2023-11-21T10:26:36;99974.34;;;8.23;100.00
58072;BME280;60383;46.626;18.866;2023-11-21T10:29:24;99966.06;;;8.14;100.00
58072;BME280;60383;46.626;18.866;2023-11-21T10:32:18;99963.94;;;8.08;100.00
58072;BME280;60383;46.626;18.866;2023-11-21T10:35:12;99951.53;;;8.14;100.00
58072;BME280;60383;46.626;18.866;2023-11-21T10:38:00;99943.84;;;8.09;100.00
58072;BME280;60383;46.626;18.866;2023-11-21T10:40:27;99935.63;;;7.91;100.00
58072;BME280;60383;46.626;18.866;2023-11-21T10:46:59;99931.41;;;7.79;100.00
58072;BME280;60383;46.626;18.866;2023-11-21T10:55:49;99921.38;;;7.70;100.00
58072;BME280;60383;46.626;18.866;2023-11-21T10:58:41;99912.16;;;7.53;100.00
58072;BME280;60383;46.626;18.866;2023-11-21T11:01:33;99904.16;;;7.69;100.00
58072;BME280;60383;46.626;18.866;2023-11-21T11:16:41;99885.56;;;7.64;100.00
58072;BME280;60383;46.626;18.866;2023-11-21T11:19:25;99885.41;;;7.66;100.00
58072;BME280;60383;46.626;18.866;2023-11-21T11:25:47;99875.00;;;7.79;100.00
58072;BME280;60383;46.626;18.866;2023-11-21T11:31:39;99882.22;;;7.71;100.00
58072;BME280;60383;46.626;18.866;2023-11-21T11:35:01;99874.28;;;7.77;100.00
58072;BME280;60383;46.626;18.866;2023-11-21T11:37:50;99876.59;;;7.72;100.00
58072;BME280;60383;46.626;18.866;2023-11-21T11:50:36;99868.28;;;7.74;100.00
58072;BME280;60383;46.626;18.866;2023-11-21T11:53:17;99859.41;;;7.72;100.00
58072;BME280;60383;46.626;18.866;2023-11-21T11:59:26;99857.47;;;7.82;100.00
58072;BME280;60383;46.626;18.866;2023-11-21T12:02:23;99861.97;;;7.73;100.00
58072;BME280;60383;46.626;18.866;2023-11-21T12:05:10;99860.34;;;7.80;100.00
58072;BME280;60383;46.626;18.866;2023-11-21T12:08:37;99859.81;;;7.77;100.00
58072;BME280;60383;46.626;18.866;2023-11-21T12:14:30;99850.28;;;7.81;100.00
58072;BME280;60383;46.626;18.866;2023-11-21T12:17:20;99864.25;;;7.78;100.00
58072;BME280;60383;46.626;18.866;2023-11-21T12:23:30;99853.97;;;7.72;100.00
58072;BME280;60383;46.626;18.866;2023-11-21T12:26:09;99857.78;;;7.79;100.00
58072;BME280;60383;46.626;18.866;2023-11-21T12:28:52;99841.81;;;7.84;100.00
58072;BME280;60383;46.626;18.866;2023-11-21T12:34:29;99835.66;;;7.82;100.00
58072;BME280;60383;46.626;18.866;2023-11-21T12:37:08;99833.72;;;7.92;100.00
58072;BME280;60383;46.626;18.866;2023-11-21T12:40:09;99845.00;;;7.79;100.00
58072;BME280;60383;46.626;18.866;2023-11-21T12:42:48;99845.78;;;7.90;100.00
58072;BME280;60383;46.626;18.866;2023-11-21T12:48:28;99838.31;;;7.92;100.00
58072;BME280;60383;46.626;18.866;2023-11-21T12:53:58;99848.91;;;7.95;100.00
58072;BME280;60383;46.626;18.866;2023-11-21T12:56:30;99848.03;;;7.94;100.00
58072;BME280;60383;46.626;18.866;2023-11-21T12:59:13;99849.16;;;8.02;100.00
58072;BME280;60383;46.626;18.866;2023-11-21T13:02:30;99838.50;;;8.08;100.00
58072;BME280;60383;46.626;18.866;2023-11-21T13:04:59;99842.53;;;8.04;100.00
58072;BME280;60383;46.626;18.866;2023-11-21T13:11:27;99844.16;;;8.15;100.00
58072;BME280;60383;46.626;18.866;2023-11-21T13:14:20;99841.69;;;8.22;100.00
58072;BME280;60383;46.626;18.866;2023-11-21T13:24:17;99836.97;;;8.14;100.00
58072;BME280;60383;46.626;18.866;2023-11-21T13:26:55;99840.03;;;8.11;100.00
58072;BME280;60383;46.626;18.866;2023-11-21T13:29:49;99837.44;;;8.27;100.00
58072;BME280;60383;46.626;18.866;2023-11-21T13:39:42;99836.28;;;8.48;100.00
58072;BME280;60383;46.626;18.866;2023-11-21T13:42:17;99840.50;;;8.60;100.00
58072;BME280;60383;46.626;18.866;2023-11-21T13:45:16;99844.31;;;8.68;100.00
58072;BME280;60383;46.626;18.866;2023-11-21T13:48:49;99847.72;;;8.70;100.00
58072;BME280;60383;46.626;18.866;2023-11-21T13:51:31;99845.09;;;8.60;100.00
58072;BME280;60383;46.626;18.866;2023-11-21T13:54:22;99843.38;;;8.41;100.00
58072;BME280;60383;46.626;18.866;2023-11-21T13:57:17;99846.78;;;8.43;100.00
58072;BME280;60383;46.626;18.866;2023-11-21T14:03:15;99861.44;;;8.42;100.00
58072;BME280;60383;46.626;18.866;2023-11-21T14:06:19;99859.59;;;8.42;100.00
58072;BME280;60383;46.626;18.866;2023-11-21T14:09:28;99864.19;;;8.42;100.00
58072;BME280;60383;46.626;18.866;2023-11-21T14:12:31;99864.50;;;8.21;100.00
58072;BME280;60383;46.626;18.866;2023-11-21T14:18:37;99869.50;;;8.43;100.00
58072;BME280;60383;46.626;18.866;2023-11-21T14:21:18;99868.00;;;8.31;100.00
58072;BME280;60383;46.626;18.866;2023-11-21T14:24:08;99872.16;;;8.35;100.00
58072;BME280;60383;46.626;18.866;2023-11-21T14:26:46;99874.50;;;8.48;100.00
58072;BME280;60383;46.626;18.866;2023-11-21T14:29:42;99876.59;;;8.36;100.00
58072;BME280;60383;46.626;18.866;2023-11-21T14:35:19;99884.84;;;8.08;100.00
58072;BME280;60383;46.626;18.866;2023-11-21T14:41:15;99873.94;;;8.26;100.00
58072;BME280;60383;46.626;18.866;2023-11-21T14:44:28;99874.03;;;8.17;100.00
58072;BME280;60383;46.626;18.866;2023-11-21T14:47:09;99881.97;;;8.10;100.00
58072;BME280;60383;46.626;18.866;2023-11-21T14:50:25;99883.06;;;8.17;100.00
58072;BME280;60383;46.626;18.866;2023-11-21T14:53:13;99879.88;;;8.22;100.00
58072;BME280;60383;46.626;18.866;2023-11-21T14:59:26;99886.97;;;8.32;100.00
58072;BME280;60383;46.626;18.866;2023-11-21T15:02:14;99883.59;;;8.03;100.00
58072;BME280;60383;46.626;18.866;2023-11-21T15:04:54;99892.16;;;8.08;100.00
58072;BME280;60383;46.626;18.866;2023-11-21T15:08:05;99897.22;;;8.03;100.00
58072;BME280;60383;46.626;18.866;2023-11-21T15:10:57;99897.78;;;8.06;100.00
58072;BME280;60383;46.626;18.866;2023-11-21T15:13:38;99909.53;;;8.07;100.00
58072;BME280;60383;46.626;18.866;2023-11-21T15:16:08;99900.50;;;8.06;100.00
58072;BME280;60383;46.626;18.866;2023-11-21T15:18:53;99892.56;;;8.13;100.00
58072;BME280;60383;46.626;18.866;2023-11-21T15:25:01;99900.78;;;8.03;100.00
58072;BME280;60383;46.626;18.866;2023-11-21T15:27:47;99906.56;;;8.00;100.00
58072;BME280;60383;46.626;18.866;2023-11-21T15:31:06;99902.59;;;8.12;100.00
58072;BME280;60383;46.626;18.866;2023-11-21T15:36:40;99918.50;;;7.99;100.00
58072;BME280;60383;46.626;18.866;2023-11-21T15:39:33;99918.56;;;7.89;100.00
58072;BME280;60383;46.626;18.866;2023-11-21T15:42:27;99923.00;;;7.90;100.00
58072;BME280;60383;46.626;18.866;2023-11-21T15:45:22;99933.03;;;7.90;100.00
58072;BME280;60383;46.626;18.866;2023-11-21T15:48:13;99932.19;;;7.89;100.00
58072;BME280;60383;46.626;18.866;2023-11-21T15:50:52;99926.72;;;7.89;100.00
58072;BME280;60383;46.626;18.866;2023-11-21T15:53:23;99936.03;;;7.96;100.00
58072;BME280;60383;46.626;18.866;2023-11-21T15:56:50;99942.97;;;8.09;100.00
58072;BME280;60383;46.626;18.866;2023-11-21T16:02:26;99939.78;;;8.13;100.00
58072;BME280;60383;46.626;18.866;2023-11-21T16:05:00;99943.59;;;8.03;100.00
58072;BME280;60383;46.626;18.866;2023-11-21T16:08:04;99939.47;;;7.98;100.00
58072;BME280;60383;46.626;18.866;2023-11-21T16:10:55;99936.81;;;8.07;100.00
58072;BME280;60383;46.626;18.866;2023-11-21T16:16:20;99942.69;;;8.12;100.00
58072;BME280;60383;46.626;18.866;2023-11-21T16:18:57;99941.81;;;8.11;100.00
58072;BME280;60383;46.626;18.866;2023-11-21T16:21:47;99940.63;;;7.96;100.00
58072;BME280;60383;46.626;18.866;2023-11-21T16:24:37;99947.78;;;7.97;100.00
58072;BME280;60383;46.626;18.866;2023-11-21T16:27:44;99950.00;;;7.83;100.00
58072;BME280;60383;46.626;18.866;2023-11-21T16:30:44;99955.78;;;7.80;100.00
58072;BME280;60383;46.626;18.866;2023-11-21T16:33:21;99952.28;;;7.88;100.00
58072;BME280;60383;46.626;18.866;2023-11-21T16:35:56;99958.28;;;7.92;100.00
58072;BME280;60383;46.626;18.866;2023-11-21T16:39:14;99957.13;;;7.94;100.00
58072;BME280;60383;46.626;18.866;2023-11-21T16:41:54;99956.81;;;7.97;100.00
58072;BME280;60383;46.626;18.866;2023-11-21T16:44:24;99961.84;;;8.02;100.00
58072;BME280;60383;46.626;18.866;2023-11-21T16:47:22;99965.84;;;7.98;100.00
58072;BME280;60383;46.626;18.866;2023-11-21T16:50:14;99957.00;;;7.96;100.00
58072;BME280;60383;46.626;18.866;2023-11-21T16:52:43;99967.47;;;7.91;100.00
58072;BME280;60383;46.626;18.866;2023-11-21T16:55:09;99961.56;;;7.95;100.00
58072;BME280;60383;46.626;18.866;2023-11-21T16:57:38;99968.59;;;7.98;100.00
58072;BME280;60383;46.626;18.866;2023-11-21T17:00:06;99969.75;;;7.95;100.00
58072;BME280;60383;46.626;18.866;2023-11-21T17:02:37;99970.63;;;7.96;100.00
58072;BME280;60383;46.626;18.866;2023-11-21T17:05:04;99972.88;;;8.00;100.00
58072;BME280;60383;46.626;18.866;2023-11-21T17:07:30;99980.03;;;8.02;100.00
58072;BME280;60383;46.626;18.866;2023-11-21T17:09:56;99982.59;;;8.13;100.00
58072;BME280;60383;46.626;18.866;2023-11-21T17:12:22;99984.88;;;8.08;100.00
58072;BME280;60383;46.626;18.866;2023-11-21T17:14:47;99978.59;;;8.07;100.00
58072;BME280;60383;46.626;18.866;2023-11-21T17:17:14;99976.50;;;8.19;100.00
58072;BME280;60383;46.626;18.866;2023-11-21T17:19:40;99973.16;;;8.25;100.00
58072;BME280;60383;46.626;18.866;2023-11-21T17:22:06;99980.66;;;8.23;100.00
58072;BME280;60383;46.626;18.866;2023-11-21T17:24:32;99979.09;;;8.21;100.00
58072;BME280;60383;46.626;18.866;2023-11-21T17:27:03;99981.50;;;8.24;100.00
58072;BME280;60383;46.626;18.866;2023-11-21T17:29:29;99974.47;;;8.21;100.00
58072;BME280;60383;46.626;18.866;2023-11-21T17:31:55;99973.63;;;8.21;100.00
58072;BME280;60383;46.626;18.866;2023-11-21T17:34:20;99977.38;;;8.20;100.00
58072;BME280;60383;46.626;18.866;2023-11-21T17:36:46;99978.53;;;8.17;100.00
58072;BME280;60383;46.626;18.866;2023-11-21T17:39:13;99984.44;;;8.12;100.00
58072;BME280;60383;46.626;18.866;2023-11-21T17:41:38;99985.44;;;8.11;100.00
58072;BME280;60383;46.626;18.866;2023-11-21T17:44:04;99982.59;;;8.13;100.00
58072;BME280;60383;46.626;18.866;2023-11-21T17:46:31;99973.69;;;8.11;100.00
58072;BME280;60383;46.626;18.866;2023-11-21T17:48:56;99971.97;;;8.10;100.00
58072;BME280;60383;46.626;18.866;2023-11-21T17:51:22;99962.25;;;8.25;100.00
58072;BME280;60383;46.626;18.866;2023-11-21T17:53:48;99966.72;;;8.26;100.00
58072;BME280;60383;46.626;18.866;2023-11-21T17:56:18;99959.69;;;8.42;100.00
58072;BME280;60383;46.626;18.866;2023-11-21T17:58:47;99963.34;;;8.32;100.00
58072;BME280;60383;46.626;18.866;2023-11-21T18:01:19;99965.28;;;8.22;100.00
58072;BME280;60383;46.626;18.866;2023-11-21T18:03:45;99967.50;;;8.09;100.00
58072;BME280;60383;46.626;18.866;2023-11-21T18:06:11;99972.13;;;7.80;100.00
58072;BME280;60383;46.626;18.866;2023-11-21T18:08:38;99970.50;;;7.88;100.00
58072;BME280;60383;46.626;18.866;2023-11-21T18:11:05;99976.81;;;7.88;100.00
58072;BME280;60383;46.626;18.866;2023-11-21T18:13:31;99984.09;;;7.97;100.00
58072;BME280;60383;46.626;18.866;2023-11-21T18:15:57;99981.97;;;7.91;100.00
58072;BME280;60383;46.626;18.866;2023-11-21T18:18:22;99992.56;;;7.94;100.00